Aérodrome :
LOGIN :

S'inscrire | Disclaimer

   EN    FR    IT 

 










Légende :    VFR   VFR Marginal   IFR   IFR Intensif   IFR Très Intensif
Visi : 
Plafond : 
>= 8 km
>= 3000ft
5 à 8 km
1000 à 3000 ft
1500m à 5 km
500 à 1000 ft
800 à 1500m
200 à 500 ft
< 800m
< 200 ft
Symboles :   Orages  Brouillard  Fortes neiges  Fortes précipitations  Vent > 20 kt
SIGMETs :   Divers  Orages  Givrage  Turbulence  Onde Orograph.  Cendres Volcan.






- Altitude de l'aérodrome : 218 ft


EGYD - RAF Cranwell

DERNIER METAR :
  • 161021Z 23013KT CAVOK 05/03 Q0999 NOSIG RMK BLU BLU

METARs EXPIRÉS :
  • 160950Z 23013KT CAVOK 05/03 Q0998 NOSIG RMK BLU BLU
  • 160921Z 23015KT CAVOK 05/03 Q0998 NOSIG RMK BLU BLU
  • 160850Z 23016KT CAVOK 05/03 Q0998 NOSIG RMK BLU BLU
  • 160820Z 22018KT CAVOK 05/02 Q0997 NOSIG RMK BLU BLU
  • 160750Z 22018KT CAVOK 05/02 Q0997 NOSIG RMK BLU BLU

TAF TAF EGYD
Valide du 16 à 09h jusqu'au 16 à 18h UTC


160734Z 1609/1618 23016KT CAVOK
PROB30
TEMPO 1609/1610 23016G26KT



MET'MAP, la Météo Aéronautique d'un coup d'oeil ! - Copyright ORBIFLY Décembre 2007 - Disclaimer

ORBIFLY MET'MAP TEAM :

Programmation & Développement : Alexandra Zaïnal
Sur une idée originale de : Baudouin d'Aumeries
Assistance à la programmation : Marc-Olivier Méhu
Soutien technique & logistique : Manuel Goepfert

Contact : metmap@orbifly.com




SOURCES & CREDITS :

   NOAA